sensor_id;sensor_type;location;lat;lon;timestamp;P1;durP1;ratioP1;P2;durP2;ratioP2
45382;SDS011;42455;51.660;5.824;2024-01-15T00:04:44;18.0;;;13.0;;
45382;SDS011;42455;51.660;5.824;2024-01-15T00:15:03;15.0;;;11.0;;
45382;SDS011;42455;51.660;5.824;2024-01-15T00:25:28;10.0;;;8.0;;
45382;SDS011;42455;51.660;5.824;2024-01-15T00:30:40;10.0;;;8.0;;
45382;SDS011;42455;51.660;5.824;2024-01-15T00:35:45;12.0;;;9.0;;
45382;SDS011;42455;51.660;5.824;2024-01-15T00:41:04;11.0;;;9.0;;
45382;SDS011;42455;51.660;5.824;2024-01-15T00:46:22;9.0;;;8.0;;
45382;SDS011;42455;51.660;5.824;2024-01-15T00:51:47;9.0;;;8.0;;
45382;SDS011;42455;51.660;5.824;2024-01-15T00:57:05;8.0;;;7.0;;
45382;SDS011;42455;51.660;5.824;2024-01-15T01:02:17;8.0;;;7.0;;
45382;SDS011;42455;51.660;5.824;2024-01-15T01:07:22;7.0;;;6.0;;
45382;SDS011;42455;51.660;5.824;2024-01-15T01:12:35;6.5;;;6.0;;
45382;SDS011;42455;51.660;5.824;2024-01-15T01:17:47;7.0;;;6.0;;
45382;SDS011;42455;51.660;5.824;2024-01-15T01:23:05;7.0;;;6.0;;
45382;SDS011;42455;51.660;5.824;2024-01-15T01:28:12;7.0;;;6.0;;
45382;SDS011;42455;51.660;5.824;2024-01-15T01:33:24;8.0;;;7.0;;
45382;SDS011;42455;51.660;5.824;2024-01-15T01:38:29;10.0;;;7.0;;
45382;SDS011;42455;51.660;5.824;2024-01-15T01:43:35;10.0;;;8.0;;
45382;SDS011;42455;51.660;5.824;2024-01-15T01:48:42;10.0;;;8.0;;
45382;SDS011;42455;51.660;5.824;2024-01-15T01:53:49;10.0;;;8.0;;
45382;SDS011;42455;51.660;5.824;2024-01-15T01:58:54;10.0;;;7.5;;
45382;SDS011;42455;51.660;5.824;2024-01-15T02:04:00;11.0;;;8.0;;
45382;SDS011;42455;51.660;5.824;2024-01-15T02:09:07;8.0;;;6.0;;
45382;SDS011;42455;51.660;5.824;2024-01-15T02:14:13;9.0;;;6.0;;
45382;SDS011;42455;51.660;5.824;2024-01-15T02:19:19;9.5;;;5.0;;
45382;SDS011;42455;51.660;5.824;2024-01-15T02:24:25;7.0;;;4.0;;
45382;SDS011;42455;51.660;5.824;2024-01-15T02:29:31;6.0;;;3.0;;
45382;SDS011;42455;51.660;5.824;2024-01-15T02:34:38;7.0;;;3.0;;
45382;SDS011;42455;51.660;5.824;2024-01-15T02:39:44;6.0;;;3.0;;
45382;SDS011;42455;51.660;5.824;2024-01-15T02:44:50;5.0;;;2.0;;
45382;SDS011;42455;51.660;5.824;2024-01-15T02:49:56;6.0;;;2.0;;
45382;SDS011;42455;51.660;5.824;2024-01-15T02:55:02;5.0;;;2.0;;
45382;SDS011;42455;51.660;5.824;2024-01-15T03:05:15;4.0;;;2.0;;
45382;SDS011;42455;51.660;5.824;2024-01-15T03:10:21;5.0;;;2.0;;
45382;SDS011;42455;51.660;5.824;2024-01-15T03:15:27;4.0;;;2.0;;
45382;SDS011;42455;51.660;5.824;2024-01-15T03:20:33;5.0;;;2.0;;
45382;SDS011;42455;51.660;5.824;2024-01-15T03:25:40;6.0;;;2.0;;
45382;SDS011;42455;51.660;5.824;2024-01-15T03:30:46;3.0;;;2.0;;
45382;SDS011;42455;51.660;5.824;2024-01-15T03:35:52;5.0;;;2.0;;
45382;SDS011;42455;51.660;5.824;2024-01-15T03:40:58;5.0;;;2.0;;
45382;SDS011;42455;51.660;5.824;2024-01-15T03:46:04;5.0;;;2.0;;
45382;SDS011;42455;51.660;5.824;2024-01-15T03:51:11;4.0;;;2.0;;
45382;SDS011;42455;51.660;5.824;2024-01-15T03:56:17;5.0;;;2.0;;
45382;SDS011;42455;51.660;5.824;2024-01-15T04:01:23;4.0;;;2.0;;
45382;SDS011;42455;51.660;5.824;2024-01-15T04:06:29;6.0;;;2.0;;
45382;SDS011;42455;51.660;5.824;2024-01-15T04:11:36;4.0;;;2.0;;
45382;SDS011;42455;51.660;5.824;2024-01-15T04:16:42;6.0;;;2.0;;
45382;SDS011;42455;51.660;5.824;2024-01-15T04:21:48;5.0;;;1.0;;
45382;SDS011;42455;51.660;5.824;2024-01-15T04:26:54;5.0;;;1.0;;
45382;SDS011;42455;51.660;5.824;2024-01-15T04:32:00;7.0;;;2.0;;
45382;SDS011;42455;51.660;5.824;2024-01-15T04:37:07;6.0;;;1.0;;
45382;SDS011;42455;51.660;5.824;2024-01-15T04:42:13;6.0;;;2.0;;
45382;SDS011;42455;51.660;5.824;2024-01-15T04:47:19;4.0;;;1.0;;
45382;SDS011;42455;51.660;5.824;2024-01-15T04:52:25;4.5;;;2.0;;
45382;SDS011;42455;51.660;5.824;2024-01-15T04:57:31;6.0;;;2.0;;
45382;SDS011;42455;51.660;5.824;2024-01-15T05:02:38;6.0;;;2.0;;
45382;SDS011;42455;51.660;5.824;2024-01-15T05:07:44;7.0;;;2.0;;
45382;SDS011;42455;51.660;5.824;2024-01-15T05:12:50;5.0;;;2.0;;
45382;SDS011;42455;51.660;5.824;2024-01-15T05:17:56;8.0;;;2.0;;
45382;SDS011;42455;51.660;5.824;2024-01-15T05:23:02;4.0;;;2.0;;
45382;SDS011;42455;51.660;5.824;2024-01-15T05:28:09;6.0;;;2.0;;
45382;SDS011;42455;51.660;5.824;2024-01-15T05:33:15;5.0;;;2.0;;
45382;SDS011;42455;51.660;5.824;2024-01-15T05:38:21;5.0;;;1.5;;
45382;SDS011;42455;51.660;5.824;2024-01-15T05:43:27;4.0;;;2.0;;
45382;SDS011;42455;51.660;5.824;2024-01-15T05:48:33;3.0;;;2.0;;
45382;SDS011;42455;51.660;5.824;2024-01-15T05:53:40;4.0;;;2.0;;
45382;SDS011;42455;51.660;5.824;2024-01-15T05:58:46;5.0;;;2.0;;
45382;SDS011;42455;51.660;5.824;2024-01-15T06:03:52;4.0;;;2.0;;
45382;SDS011;42455;51.660;5.824;2024-01-15T06:08:58;4.0;;;2.0;;
45382;SDS011;42455;51.660;5.824;2024-01-15T06:14:05;3.0;;;2.0;;
45382;SDS011;42455;51.660;5.824;2024-01-15T06:19:11;3.0;;;2.0;;
45382;SDS011;42455;51.660;5.824;2024-01-15T06:24:17;4.0;;;2.0;;
45382;SDS011;42455;51.660;5.824;2024-01-15T06:29:26;5.0;;;2.0;;
45382;SDS011;42455;51.660;5.824;2024-01-15T06:34:29;4.5;;;2.0;;
45382;SDS011;42455;51.660;5.824;2024-01-15T06:39:35;5.0;;;3.0;;
45382;SDS011;42455;51.660;5.824;2024-01-15T06:44:42;5.0;;;3.0;;
45382;SDS011;42455;51.660;5.824;2024-01-15T06:49:48;3.0;;;2.0;;
45382;SDS011;42455;51.660;5.824;2024-01-15T06:54:54;5.0;;;2.0;;
45382;SDS011;42455;51.660;5.824;2024-01-15T07:05:06;3.0;;;3.0;;
45382;SDS011;42455;51.660;5.824;2024-01-15T07:10:12;5.0;;;3.0;;
45382;SDS011;42455;51.660;5.824;2024-01-15T07:15:18;5.0;;;3.0;;
45382;SDS011;42455;51.660;5.824;2024-01-15T07:20:24;6.0;;;5.0;;
45382;SDS011;42455;51.660;5.824;2024-01-15T07:30:37;5.0;;;5.0;;
45382;SDS011;42455;51.660;5.824;2024-01-15T07:35:43;7.0;;;5.0;;
45382;SDS011;42455;51.660;5.824;2024-01-15T07:40:49;7.0;;;5.0;;
45382;SDS011;42455;51.660;5.824;2024-01-15T07:45:55;6.0;;;5.5;;
45382;SDS011;42455;51.660;5.824;2024-01-15T07:51:01;7.0;;;6.0;;
45382;SDS011;42455;51.660;5.824;2024-01-15T07:56:08;7.0;;;6.0;;
45382;SDS011;42455;51.660;5.824;2024-01-15T08:01:14;6.0;;;6.0;;
45382;SDS011;42455;51.660;5.824;2024-01-15T08:06:20;6.0;;;6.0;;
45382;SDS011;42455;51.660;5.824;2024-01-15T08:11:26;5.0;;;5.0;;
45382;SDS011;42455;51.660;5.824;2024-01-15T08:16:33;4.0;;;4.0;;
45382;SDS011;42455;51.660;5.824;2024-01-15T08:21:39;5.0;;;4.0;;
45382;SDS011;42455;51.660;5.824;2024-01-15T08:26:45;4.0;;;4.0;;
45382;SDS011;42455;51.660;5.824;2024-01-15T08:31:51;5.0;;;4.0;;
45382;SDS011;42455;51.660;5.824;2024-01-15T08:36:57;5.0;;;4.0;;
45382;SDS011;42455;51.660;5.824;2024-01-15T08:42:03;5.0;;;5.0;;
45382;SDS011;42455;51.660;5.824;2024-01-15T08:47:10;5.0;;;4.0;;
45382;SDS011;42455;51.660;5.824;2024-01-15T08:52:16;5.0;;;4.0;;
45382;SDS011;42455;51.660;5.824;2024-01-15T08:57:22;5.0;;;4.0;;
45382;SDS011;42455;51.660;5.824;2024-01-15T09:02:28;4.0;;;3.0;;
45382;SDS011;42455;51.660;5.824;2024-01-15T09:07:34;4.0;;;3.0;;
45382;SDS011;42455;51.660;5.824;2024-01-15T09:12:41;3.0;;;2.0;;
45382;SDS011;42455;51.660;5.824;2024-01-15T09:17:47;2.0;;;2.0;;
45382;SDS011;42455;51.660;5.824;2024-01-15T09:22:53;2.0;;;1.0;;
45382;SDS011;42455;51.660;5.824;2024-01-15T09:27:59;3.0;;;3.0;;
45382;SDS011;42455;51.660;5.824;2024-01-15T09:33:06;7.0;;;6.0;;
45382;SDS011;42455;51.660;5.824;2024-01-15T09:43:18;4.0;;;3.0;;
45382;SDS011;42455;51.660;5.824;2024-01-15T09:48:24;6.0;;;5.0;;
45382;SDS011;42455;51.660;5.824;2024-01-15T09:53:30;5.0;;;4.5;;
45382;SDS011;42455;51.660;5.824;2024-01-15T09:58:37;5.0;;;5.0;;
45382;SDS011;42455;51.660;5.824;2024-01-15T10:03:44;5.0;;;5.0;;
45382;SDS011;42455;51.660;5.824;2024-01-15T10:08:50;7.0;;;6.0;;
45382;SDS011;42455;51.660;5.824;2024-01-15T10:13:55;8.0;;;7.0;;
45382;SDS011;42455;51.660;5.824;2024-01-15T10:19:01;8.0;;;7.0;;
45382;SDS011;42455;51.660;5.824;2024-01-15T10:24:08;7.0;;;7.0;;
45382;SDS011;42455;51.660;5.824;2024-01-15T10:29:14;7.5;;;6.0;;
45382;SDS011;42455;51.660;5.824;2024-01-15T10:34:20;7.0;;;4.0;;
45382;SDS011;42455;51.660;5.824;2024-01-15T10:39:26;4.5;;;4.0;;
45382;SDS011;42455;51.660;5.824;2024-01-15T10:44:32;4.0;;;2.0;;
45382;SDS011;42455;51.660;5.824;2024-01-15T10:54:45;5.0;;;2.0;;
45382;SDS011;42455;51.660;5.824;2024-01-15T10:59:51;3.0;;;1.0;;
45382;SDS011;42455;51.660;5.824;2024-01-15T11:04:58;4.0;;;1.0;;
45382;SDS011;42455;51.660;5.824;2024-01-15T11:10:03;4.0;;;1.5;;
45382;SDS011;42455;51.660;5.824;2024-01-15T11:15:10;4.0;;;1.0;;
45382;SDS011;42455;51.660;5.824;2024-01-15T11:20:16;4.0;;;1.0;;
45382;SDS011;42455;51.660;5.824;2024-01-15T11:25:22;4.0;;;1.0;;
45382;SDS011;42455;51.660;5.824;2024-01-15T11:30:28;3.0;;;1.0;;
45382;SDS011;42455;51.660;5.824;2024-01-15T11:35:48;2.0;;;1.0;;
45382;SDS011;42455;51.660;5.824;2024-01-15T11:40:41;3.0;;;1.0;;
45382;SDS011;42455;51.660;5.824;2024-01-15T11:45:51;5.0;;;2.0;;
45382;SDS011;42455;51.660;5.824;2024-01-15T11:50:53;2.5;;;2.0;;
45382;SDS011;42455;51.660;5.824;2024-01-15T11:56:01;4.0;;;2.0;;
45382;SDS011;42455;51.660;5.824;2024-01-15T12:01:06;3.0;;;2.0;;
45382;SDS011;42455;51.660;5.824;2024-01-15T12:06:12;5.0;;;2.0;;
45382;SDS011;42455;51.660;5.824;2024-01-15T12:11:24;3.0;;;2.0;;
45382;SDS011;42455;51.660;5.824;2024-01-15T12:16:24;4.0;;;2.0;;
45382;SDS011;42455;51.660;5.824;2024-01-15T12:21:30;4.0;;;2.0;;
45382;SDS011;42455;51.660;5.824;2024-01-15T12:26:37;3.0;;;2.0;;
45382;SDS011;42455;51.660;5.824;2024-01-15T12:31:46;2.0;;;1.0;;
45382;SDS011;42455;51.660;5.824;2024-01-15T12:36:49;3.0;;;1.0;;
45382;SDS011;42455;51.660;5.824;2024-01-15T12:41:54;3.0;;;1.0;;
45382;SDS011;42455;51.660;5.824;2024-01-15T12:47:01;3.0;;;1.0;;
45382;SDS011;42455;51.660;5.824;2024-01-15T12:52:08;2.0;;;1.0;;
45382;SDS011;42455;51.660;5.824;2024-01-15T12:57:13;2.0;;;1.0;;
45382;SDS011;42455;51.660;5.824;2024-01-15T13:02:19;3.0;;;1.0;;
45382;SDS011;42455;51.660;5.824;2024-01-15T13:07:25;2.5;;;0.0;;
45382;SDS011;42455;51.660;5.824;2024-01-15T13:12:32;2.0;;;1.0;;
45382;SDS011;42455;51.660;5.824;2024-01-15T13:17:38;2.0;;;1.0;;
45382;SDS011;42455;51.660;5.824;2024-01-15T13:22:44;2.0;;;1.0;;
45382;SDS011;42455;51.660;5.824;2024-01-15T13:27:50;3.0;;;2.0;;
45382;SDS011;42455;51.660;5.824;2024-01-15T13:32:56;2.0;;;1.0;;
45382;SDS011;42455;51.660;5.824;2024-01-15T13:38:03;2.0;;;1.0;;
45382;SDS011;42455;51.660;5.824;2024-01-15T13:43:08;3.0;;;1.0;;
45382;SDS011;42455;51.660;5.824;2024-01-15T13:48:14;3.0;;;1.0;;
45382;SDS011;42455;51.660;5.824;2024-01-15T13:53:20;3.0;;;1.0;;
45382;SDS011;42455;51.660;5.824;2024-01-15T13:58:26;2.0;;;1.0;;
45382;SDS011;42455;51.660;5.824;2024-01-15T14:03:33;2.0;;;1.0;;
45382;SDS011;42455;51.660;5.824;2024-01-15T14:08:39;3.0;;;1.0;;
45382;SDS011;42455;51.660;5.824;2024-01-15T14:13:45;2.0;;;1.0;;
45382;SDS011;42455;51.660;5.824;2024-01-15T14:18:51;2.0;;;0.0;;
45382;SDS011;42455;51.660;5.824;2024-01-15T14:29:04;3.0;;;2.0;;
45382;SDS011;42455;51.660;5.824;2024-01-15T14:34:10;4.0;;;2.0;;
45382;SDS011;42455;51.660;5.824;2024-01-15T14:39:16;3.0;;;1.5;;
45382;SDS011;42455;51.660;5.824;2024-01-15T14:44:22;3.0;;;1.0;;
45382;SDS011;42455;51.660;5.824;2024-01-15T14:49:28;5.0;;;2.0;;
45382;SDS011;42455;51.660;5.824;2024-01-15T14:54:35;5.0;;;2.0;;
45382;SDS011;42455;51.660;5.824;2024-01-15T14:59:41;5.0;;;2.0;;
45382;SDS011;42455;51.660;5.824;2024-01-15T15:04:47;5.0;;;2.0;;
45382;SDS011;42455;51.660;5.824;2024-01-15T15:09:53;3.0;;;1.0;;
45382;SDS011;42455;51.660;5.824;2024-01-15T15:14:59;4.0;;;2.0;;
45382;SDS011;42455;51.660;5.824;2024-01-15T15:20:06;5.0;;;2.0;;
45382;SDS011;42455;51.660;5.824;2024-01-15T15:25:12;5.0;;;1.0;;
45382;SDS011;42455;51.660;5.824;2024-01-15T15:30:18;4.0;;;2.0;;
45382;SDS011;42455;51.660;5.824;2024-01-15T15:35:24;4.0;;;2.0;;
45382;SDS011;42455;51.660;5.824;2024-01-15T15:40:30;4.0;;;2.0;;
45382;SDS011;42455;51.660;5.824;2024-01-15T15:45:37;9.0;;;3.0;;
45382;SDS011;42455;51.660;5.824;2024-01-15T15:50:43;7.0;;;4.0;;
45382;SDS011;42455;51.660;5.824;2024-01-15T15:55:49;7.0;;;3.0;;
45382;SDS011;42455;51.660;5.824;2024-01-15T16:00:55;6.5;;;2.0;;
45382;SDS011;42455;51.660;5.824;2024-01-15T16:06:02;6.0;;;2.0;;
45382;SDS011;42455;51.660;5.824;2024-01-15T16:11:08;6.0;;;2.0;;
45382;SDS011;42455;51.660;5.824;2024-01-15T16:16:14;8.0;;;3.0;;
45382;SDS011;42455;51.660;5.824;2024-01-15T16:21:20;10.0;;;3.0;;
45382;SDS011;42455;51.660;5.824;2024-01-15T16:26:26;7.5;;;2.0;;
45382;SDS011;42455;51.660;5.824;2024-01-15T16:31:33;7.5;;;2.0;;
45382;SDS011;42455;51.660;5.824;2024-01-15T16:36:39;6.0;;;2.0;;
45382;SDS011;42455;51.660;5.824;2024-01-15T16:41:45;8.0;;;2.0;;
45382;SDS011;42455;51.660;5.824;2024-01-15T16:46:51;6.0;;;2.0;;
45382;SDS011;42455;51.660;5.824;2024-01-15T16:51:57;7.0;;;2.0;;
45382;SDS011;42455;51.660;5.824;2024-01-15T16:57:04;7.0;;;2.0;;
45382;SDS011;42455;51.660;5.824;2024-01-15T17:02:10;4.0;;;1.0;;
45382;SDS011;42455;51.660;5.824;2024-01-15T17:07:16;6.0;;;2.0;;
45382;SDS011;42455;51.660;5.824;2024-01-15T17:12:22;8.0;;;2.0;;
45382;SDS011;42455;51.660;5.824;2024-01-15T17:17:29;6.0;;;2.0;;
45382;SDS011;42455;51.660;5.824;2024-01-15T17:22:35;8.0;;;2.0;;
45382;SDS011;42455;51.660;5.824;2024-01-15T17:27:41;7.0;;;2.0;;
45382;SDS011;42455;51.660;5.824;2024-01-15T17:32:47;8.0;;;2.0;;
45382;SDS011;42455;51.660;5.824;2024-01-15T17:37:53;9.0;;;2.0;;
45382;SDS011;42455;51.660;5.824;2024-01-15T17:43:00;9.5;;;2.0;;
45382;SDS011;42455;51.660;5.824;2024-01-15T17:48:06;6.0;;;2.0;;
45382;SDS011;42455;51.660;5.824;2024-01-15T17:53:12;8.0;;;2.0;;
45382;SDS011;42455;51.660;5.824;2024-01-15T17:58:18;6.0;;;2.0;;
45382;SDS011;42455;51.660;5.824;2024-01-15T18:03:24;7.0;;;2.0;;
45382;SDS011;42455;51.660;5.824;2024-01-15T18:08:31;9.0;;;2.0;;
45382;SDS011;42455;51.660;5.824;2024-01-15T18:13:37;9.0;;;3.0;;
45382;SDS011;42455;51.660;5.824;2024-01-15T18:18:43;8.0;;;2.0;;
45382;SDS011;42455;51.660;5.824;2024-01-15T18:23:49;6.0;;;2.0;;
45382;SDS011;42455;51.660;5.824;2024-01-15T18:28:55;6.0;;;2.0;;
45382;SDS011;42455;51.660;5.824;2024-01-15T18:34:02;5.0;;;2.0;;
45382;SDS011;42455;51.660;5.824;2024-01-15T18:39:08;6.0;;;2.0;;
45382;SDS011;42455;51.660;5.824;2024-01-15T18:44:14;5.0;;;2.0;;
45382;SDS011;42455;51.660;5.824;2024-01-15T18:49:20;5.5;;;2.0;;
45382;SDS011;42455;51.660;5.824;2024-01-15T18:54:26;5.0;;;2.0;;
45382;SDS011;42455;51.660;5.824;2024-01-15T18:59:33;7.0;;;2.0;;
45382;SDS011;42455;51.660;5.824;2024-01-15T19:04:39;6.0;;;2.0;;
45382;SDS011;42455;51.660;5.824;2024-01-15T19:09:45;5.0;;;2.0;;
45382;SDS011;42455;51.660;5.824;2024-01-15T19:14:50;6.0;;;2.0;;
45382;SDS011;42455;51.660;5.824;2024-01-15T19:19:56;6.0;;;2.0;;
45382;SDS011;42455;51.660;5.824;2024-01-15T19:25:03;6.0;;;2.0;;
45382;SDS011;42455;51.660;5.824;2024-01-15T19:30:09;4.0;;;2.0;;
45382;SDS011;42455;51.660;5.824;2024-01-15T19:35:15;4.0;;;2.0;;
45382;SDS011;42455;51.660;5.824;2024-01-15T19:40:21;5.0;;;2.0;;
45382;SDS011;42455;51.660;5.824;2024-01-15T19:45:27;6.0;;;3.0;;
45382;SDS011;42455;51.660;5.824;2024-01-15T19:50:34;5.0;;;3.0;;
45382;SDS011;42455;51.660;5.824;2024-01-15T19:55:40;6.0;;;3.0;;
45382;SDS011;42455;51.660;5.824;2024-01-15T20:00:46;7.0;;;4.0;;
45382;SDS011;42455;51.660;5.824;2024-01-15T20:05:52;6.0;;;3.0;;
45382;SDS011;42455;51.660;5.824;2024-01-15T20:10:58;9.0;;;4.0;;
45382;SDS011;42455;51.660;5.824;2024-01-15T20:16:05;7.0;;;3.5;;
45382;SDS011;42455;51.660;5.824;2024-01-15T20:21:11;7.0;;;4.0;;
45382;SDS011;42455;51.660;5.824;2024-01-15T20:26:17;6.0;;;3.0;;
45382;SDS011;42455;51.660;5.824;2024-01-15T20:31:23;7.0;;;3.0;;
45382;SDS011;42455;51.660;5.824;2024-01-15T20:36:30;7.0;;;3.0;;
45382;SDS011;42455;51.660;5.824;2024-01-15T20:41:36;8.0;;;3.0;;
45382;SDS011;42455;51.660;5.824;2024-01-15T20:46:42;6.0;;;3.0;;
45382;SDS011;42455;51.660;5.824;2024-01-15T20:51:48;6.0;;;3.0;;
45382;SDS011;42455;51.660;5.824;2024-01-15T20:56:54;7.0;;;4.0;;
45382;SDS011;42455;51.660;5.824;2024-01-15T21:02:01;7.0;;;4.0;;
45382;SDS011;42455;51.660;5.824;2024-01-15T21:07:07;8.0;;;4.0;;
45382;SDS011;42455;51.660;5.824;2024-01-15T21:12:13;8.5;;;5.0;;
45382;SDS011;42455;51.660;5.824;2024-01-15T21:17:19;10.0;;;6.0;;
45382;SDS011;42455;51.660;5.824;2024-01-15T21:22:25;10.0;;;7.0;;
45382;SDS011;42455;51.660;5.824;2024-01-15T21:27:32;11.5;;;8.0;;
45382;SDS011;42455;51.660;5.824;2024-01-15T21:32:38;15.0;;;7.0;;
45382;SDS011;42455;51.660;5.824;2024-01-15T21:37:44;12.0;;;8.0;;
45382;SDS011;42455;51.660;5.824;2024-01-15T21:42:50;13.0;;;8.0;;
45382;SDS011;42455;51.660;5.824;2024-01-15T21:47:56;11.0;;;8.0;;
45382;SDS011;42455;51.660;5.824;2024-01-15T21:53:03;10.5;;;8.0;;
45382;SDS011;42455;51.660;5.824;2024-01-15T21:58:09;11.5;;;7.0;;
45382;SDS011;42455;51.660;5.824;2024-01-15T22:03:15;12.0;;;8.0;;
45382;SDS011;42455;51.660;5.824;2024-01-15T22:08:21;9.5;;;7.0;;
45382;SDS011;42455;51.660;5.824;2024-01-15T22:13:27;13.0;;;8.0;;
45382;SDS011;42455;51.660;5.824;2024-01-15T22:18:34;11.5;;;7.0;;
45382;SDS011;42455;51.660;5.824;2024-01-15T22:23:40;8.0;;;6.0;;
45382;SDS011;42455;51.660;5.824;2024-01-15T22:28:46;7.5;;;5.5;;
45382;SDS011;42455;51.660;5.824;2024-01-15T22:33:52;9.0;;;6.0;;
45382;SDS011;42455;51.660;5.824;2024-01-15T22:38:59;8.0;;;5.0;;
45382;SDS011;42455;51.660;5.824;2024-01-15T22:44:05;6.0;;;6.0;;
45382;SDS011;42455;51.660;5.824;2024-01-15T22:49:11;9.0;;;6.0;;
45382;SDS011;42455;51.660;5.824;2024-01-15T22:54:17;9.0;;;5.0;;
45382;SDS011;42455;51.660;5.824;2024-01-15T22:59:23;8.0;;;5.0;;
45382;SDS011;42455;51.660;5.824;2024-01-15T23:04:30;7.0;;;5.0;;
45382;SDS011;42455;51.660;5.824;2024-01-15T23:09:36;8.0;;;5.0;;
45382;SDS011;42455;51.660;5.824;2024-01-15T23:14:42;7.0;;;5.0;;
45382;SDS011;42455;51.660;5.824;2024-01-15T23:19:48;9.0;;;6.0;;
45382;SDS011;42455;51.660;5.824;2024-01-15T23:24:54;9.0;;;7.0;;
45382;SDS011;42455;51.660;5.824;2024-01-15T23:30:01;9.0;;;8.0;;
45382;SDS011;42455;51.660;5.824;2024-01-15T23:35:07;10.5;;;8.0;;
45382;SDS011;42455;51.660;5.824;2024-01-15T23:40:13;10.5;;;8.0;;
45382;SDS011;42455;51.660;5.824;2024-01-15T23:45:19;10.0;;;8.0;;
45382;SDS011;42455;51.660;5.824;2024-01-15T23:50:26;9.0;;;8.0;;
45382;SDS011;42455;51.660;5.824;2024-01-15T23:55:32;9.0;;;7.0;;
